Lisbon, Portugal
Current Conditions -  °F | °C
As of 2:00 PM on Sunday 25 Jan 2015 (Local Time) from LPPT Reporting Station
Clear Clear  
Wind Chill: 17°   Ceiling: Unl
Heat Index: 17°   Visibility: 6mi
Dew Point:   Wind: 10mph
Humidity: 48%   Direction: 350°N
Pressure: 30.36"   Gusts: NA
Location:  38.72°N, 9.14°W
Report Text: LPPT 251400Z 35009KT 300V040 CAVOK 17/06 Q1028
Loading
Personal Weather Stations






























Interactive Weather Map New forecast layout! Learn more

10-Day Weather Forecast

Advertisements
Track Severe Weather on mobile